Time;durP1;ratioP1;P1;durP2;ratioP2;P2;SDS_P1;SDS_P2;PMS_P1;PMS_P2;Temp;Humidity;BMP_temperature;BMP_pressure;BME280_temperature;BME280_humidity;BME280_pressure;Samples;Min_cycle;Max_cycle;Signal;HPM_P1;HPM_P2
2022/11/02 00:02:07;;;;;;;6.43;1.10;;;13.70;71.90;;;;;;5074878;28;20036;-76
2022/11/02 00:04:33;;;;;;;10.20;2.40;;;13.60;72.00;;;;;;5075033;28;20100;-76
2022/11/02 00:06:58;;;;;;;5.55;1.30;;;13.60;72.20;;;;;;5092403;28;20131;-75
2022/11/02 00:09:24;;;;;;;5.70;1.38;;;13.60;72.40;;;;;;5057558;28;20119;-75
2022/11/02 00:11:50;;;;;;;5.95;2.08;;;13.60;72.40;;;;;;5075199;28;20129;-75
2022/11/02 00:14:15;;;;;;;4.22;1.52;;;13.60;72.70;;;;;;5074982;28;20032;-75
2022/11/02 00:16:41;;;;;;;7.20;1.02;;;13.60;72.90;;;;;;5075249;28;20040;-75
2022/11/02 00:19:08;;;;;;;2.55;0.93;;;13.60;72.70;;;;;;5075102;28;20127;-75
2022/11/02 00:21:34;;;;;;;5.10;1.00;;;13.50;72.40;;;;;;5075154;28;20075;-75
2022/11/02 00:24:01;;;;;;;4.22;0.90;;;13.50;72.30;;;;;;5074955;28;20044;-76
2022/11/02 00:26:27;;;;;;;3.03;1.13;;;13.50;72.40;;;;;;5075023;28;20111;-71
2022/11/02 00:28:54;;;;;;;4.22;1.00;;;13.40;72.50;;;;;;5071331;28;20072;-72
2022/11/02 00:31:19;;;;;;;3.17;0.80;;;13.40;72.50;;;;;;5061938;28;20081;-70
2022/11/02 00:33:45;;;;;;;5.22;1.13;;;13.40;72.60;;;;;;5084886;28;20044;-73
2022/11/02 00:36:11;;;;;;;4.68;0.60;;;13.40;72.70;;;;;;5054540;28;20068;-71
2022/11/02 00:38:37;;;;;;;1.92;0.52;;;13.30;72.70;;;;;;5065862;28;20467;-74
2022/11/02 00:41:03;;;;;;;2.35;0.50;;;13.40;72.90;;;;;;5075170;28;20086;-74
2022/11/02 00:43:28;;;;;;;4.90;1.10;;;13.30;72.90;;;;;;5067950;28;20044;-71
2022/11/02 00:45:55;;;;;;;2.28;0.50;;;13.30;73.10;;;;;;5074590;28;20040;-71
2022/11/02 00:48:21;;;;;;;3.15;0.70;;;13.30;73.20;;;;;;5074740;28;20123;-72
2022/11/02 00:50:46;;;;;;;2.75;0.55;;;13.20;73.30;;;;;;5015606;28;20119;-72
2022/11/02 00:53:12;;;;;;;0.75;0.45;;;13.20;73.30;;;;;;5047873;28;20125;-72
2022/11/02 00:55:37;;;;;;;1.45;0.38;;;13.20;73.40;;;;;;5057483;28;20041;-72
2022/11/02 00:58:03;;;;;;;1.70;0.50;;;13.10;73.50;;;;;;5056913;28;20037;-72
2022/11/02 01:00:29;;;;;;;1.50;0.60;;;13.10;73.70;;;;;;5074093;28;20032;-71
2022/11/02 01:02:58;;;;;;;2.05;0.60;;;13.10;73.80;;;;;;5074034;28;20097;-72
2022/11/02 01:05:23;;;;;;;3.25;0.85;;;13.10;74.00;;;;;;5091155;28;20044;-71
2022/11/02 01:07:49;;;;;;;2.25;0.65;;;13.10;74.10;;;;;;5054226;28;20047;-72
2022/11/02 01:10:14;;;;;;;2.90;0.68;;;13.10;74.30;;;;;;5063419;28;20403;-71
2022/11/02 01:12:40;;;;;;;3.33;0.57;;;13.00;74.30;;;;;;5056809;28;20056;-71
2022/11/02 01:15:09;;;;;;;2.15;0.60;;;13.00;74.50;;;;;;5053936;28;20043;-71
2022/11/02 01:17:35;;;;;;;3.90;1.02;;;13.00;74.60;;;;;;5071495;28;20192;-72
2022/11/02 01:20:02;;;;;;;3.38;0.88;;;13.00;74.60;;;;;;5075191;28;20051;-71
2022/11/02 01:22:27;;;;;;;3.13;0.90;;;13.00;74.70;;;;;;5077906;28;20053;-75
2022/11/02 01:24:54;;;;;;;3.63;1.05;;;13.00;74.80;;;;;;5074069;28;20039;-75
2022/11/02 01:27:20;;;;;;;2.88;0.73;;;13.00;74.80;;;;;;5078115;28;20127;-75
2022/11/02 01:29:45;;;;;;;3.58;1.00;;;12.90;74.90;;;;;;5061569;28;20131;-75
2022/11/02 01:32:11;;;;;;;3.50;1.08;;;12.90;75.00;;;;;;5078571;28;20036;-76
2022/11/02 01:34:37;;;;;;;5.18;1.27;;;12.90;75.10;;;;;;5061121;28;20107;-75
2022/11/02 01:37:02;;;;;;;6.10;1.38;;;12.80;75.20;;;;;;5078340;28;20078;-72
2022/11/02 01:39:28;;;;;;;8.18;1.65;;;12.80;75.40;;;;;;5077057;28;20040;-72
2022/11/02 01:41:54;;;;;;;7.30;2.35;;;12.80;75.60;;;;;;5079539;28;20048;-72
2022/11/02 01:44:34;;;;;;;5.07;1.15;;;12.70;75.80;;;;;;5061738;28;20040;-71
2022/11/02 01:47:06;;;;;;;6.28;1.92;;;12.70;76.20;;;;;;5077596;28;20051;-72
2022/11/02 01:49:37;;;;;;;11.68;2.17;;;12.70;76.30;;;;;;5077419;28;20502;-71
2022/11/02 01:52:18;;;;;;;8.43;2.35;;;12.70;76.50;;;;;;5078441;28;20036;-71
2022/11/02 01:55:13;;;;;;;9.75;2.55;;;12.70;76.90;;;;;;5077114;28;20043;-75
2022/11/02 01:57:43;;;;;;;12.43;1.90;;;12.70;77.20;;;;;;5058936;28;20040;-76
2022/11/02 02:00:12;;;;;;;7.55;2.13;;;12.70;76.90;;;;;;5077474;28;20047;-75
2022/11/02 02:02:53;;;;;;;13.75;2.83;;;12.70;77.00;;;;;;5077022;28;20044;-75
2022/11/02 02:05:22;;;;;;;7.50;2.03;;;12.70;77.10;;;;;;5077565;28;20044;-76
2022/11/02 02:07:49;;;;;;;5.65;1.58;;;12.70;77.00;;;;;;5077688;28;20376;-76
2022/11/02 02:10:15;;;;;;;6.47;1.40;;;12.70;76.80;;;;;;5077404;28;20044;-76
2022/11/02 02:12:42;;;;;;;4.70;1.40;;;12.70;76.50;;;;;;5058010;28;20048;-76
2022/11/02 02:15:09;;;;;;;2.08;0.60;;;12.60;75.90;;;;;;5077444;28;20047;-76
2022/11/02 02:18:20;;;;;;;4.20;0.88;;;12.70;75.80;;;;;;5077522;28;20044;-76
2022/11/02 02:21:15;;;;;;;2.72;0.65;;;12.70;74.90;;;;;;4976656;28;20038;-72
2022/11/02 02:24:02;;;;;;;3.13;0.77;;;12.60;74.20;;;;;;4961365;28;20088;-71
2022/11/02 02:26:33;;;;;;;4.47;0.80;;;12.70;74.10;;;;;;5057337;28;20112;-72
2022/11/02 02:29:05;;;;;;;5.30;0.95;;;12.70;74.00;;;;;;5043413;28;20373;-71
2022/11/02 02:31:59;;;;;;;5.32;1.10;;;12.70;73.90;;;;;;5076339;28;20040;-71
2022/11/02 02:34:38;;;;;;;3.40;0.70;;;12.70;73.20;;;;;;5070377;28;20442;-71
2022/11/02 02:37:15;;;;;;;3.03;0.80;;;12.70;73.20;;;;;;5073448;28;20044;-71
2022/11/02 02:40:00;;;;;;;4.10;1.10;;;12.70;73.00;;;;;;5051666;28;20376;-71
2022/11/02 02:42:34;;;;;;;5.05;0.93;;;12.60;72.60;;;;;;5076146;28;20495;-71
2022/11/02 02:45:21;;;;;;;0.70;0.32;;;12.60;73.00;;;;;;5050222;28;20040;-76
2022/11/02 02:48:00;;;;;;;4.22;0.60;;;12.60;72.50;;;;;;5073265;28;20048;-76
2022/11/02 02:50:30;;;;;;;1.50;0.50;;;12.60;72.40;;;;;;5089870;28;20090;-76
2022/11/02 02:52:58;;;;;;;3.17;0.70;;;12.60;72.30;;;;;;5059671;28;20062;-76
2022/11/02 02:55:30;;;;;;;4.32;0.90;;;12.60;72.20;;;;;;5040777;28;20395;-71
2022/11/02 02:57:58;;;;;;;5.90;1.38;;;12.60;72.30;;;;;;5058903;28;20040;-71
2022/11/02 03:00:24;;;;;;;4.57;1.48;;;12.60;72.40;;;;;;5075674;28;20036;-71
2022/11/02 03:03:00;;;;;;;6.75;1.30;;;12.50;72.50;;;;;;5058933;28;20048;-72
2022/11/02 03:05:31;;;;;;;4.97;1.10;;;12.50;72.70;;;;;;5072273;28;20044;-72
2022/11/02 03:08:01;;;;;;;7.70;1.35;;;12.50;72.80;;;;;;5056165;28;20106;-76
2022/11/02 03:10:38;;;;;;;7.45;1.33;;;12.50;73.00;;;;;;5065595;28;20036;-75
2022/11/02 03:13:28;;;;;;;5.53;1.00;;;12.50;73.40;;;;;;5076187;28;20544;-76
2022/11/02 03:16:16;;;;;;;3.53;0.90;;;12.50;72.90;;;;;;5076126;28;20048;-76
2022/11/02 03:19:04;;;;;;;3.25;1.00;;;12.40;72.70;;;;;;5076011;28;20072;-76
2022/11/02 03:21:43;;;;;;;5.45;0.98;;;12.40;72.60;;;;;;5056277;28;20115;-71
2022/11/02 03:24:12;;;;;;;4.57;1.35;;;12.40;72.50;;;;;;5058444;28;20076;-71
2022/11/02 03:27:20;;;;;;;3.28;0.80;;;12.40;72.40;;;;;;5055479;28;20045;-71
2022/11/02 03:30:04;;;;;;;7.30;1.10;;;12.30;72.10;;;;;;5037521;28;20052;-72
2022/11/02 03:32:39;;;;;;;7.88;1.35;;;12.30;72.20;;;;;;5075407;28;20125;-71
2022/11/02 03:35:21;;;;;;;4.50;0.93;;;12.30;72.20;;;;;;5074589;28;20032;-72
2022/11/02 03:38:03;;;;;;;5.35;1.38;;;12.30;72.40;;;;;;5092495;28;20516;-71
2022/11/02 03:40:34;;;;;;;2.80;0.70;;;12.30;72.50;;;;;;5075531;28;20067;-71
2022/11/02 03:43:03;;;;;;;7.32;1.25;;;12.30;72.50;;;;;;5088022;28;20072;-71
2022/11/02 03:45:37;;;;;;;5.53;1.10;;;12.30;72.40;;;;;;5058022;28;20085;-71
2022/11/02 03:48:07;;;;;;;7.57;2.00;;;12.20;72.20;;;;;;5074999;28;20406;-71
2022/11/02 03:50:36;;;;;;;7.05;1.15;;;12.20;72.40;;;;;;5069831;28;20032;-71
2022/11/02 03:53:38;;;;;;;4.75;0.90;;;12.20;72.80;;;;;;5047383;28;20058;-70
2022/11/02 03:56:11;;;;;;;9.48;1.75;;;12.20;72.30;;;;;;5042025;28;20052;-71
2022/11/02 03:58:36;;;;;;;5.22;1.45;;;12.20;72.30;;;;;;5075204;28;20122;-71
2022/11/02 04:01:07;;;;;;;5.95;1.25;;;12.10;72.30;;;;;;5058343;28;20032;-71
2022/11/02 04:03:35;;;;;;;3.75;1.20;;;12.20;72.30;;;;;;5067913;28;20061;-71
2022/11/02 04:06:00;;;;;;;6.32;1.40;;;12.20;72.30;;;;;;5045818;28;20115;-70
2022/11/02 04:08:57;;;;;;;5.75;1.50;;;12.10;72.30;;;;;;5058457;28;20127;-70
2022/11/02 04:19:26;;;;;;;;;;;12.10;72.60;;;;;;5055178;28;20048;-70
2022/11/02 04:19:40;;;;;;;9.23;1.92;;;12.10;72.60;;;;;;5061338;28;20264;-71
2022/11/02 04:27:34;;;;;;;4.28;1.08;;;12.10;73.00;;;;;;5054532;28;20055;-70
2022/11/02 04:29:59;;;;;;;7.38;1.33;;;12.10;73.10;;;;;;5055165;28;20119;-70
2022/11/02 04:35:09;;;;;;;7.63;2.10;;;12.00;73.30;;;;;;5060210;28;20047;-75
2022/11/02 04:40:26;;;;;;;6.88;1.33;;;12.10;73.70;;;;;;5060836;28;20097;-75
2022/11/02 04:42:52;;;;;;;7.60;1.42;;;12.10;74.00;;;;;;5074661;28;20040;-75
2022/11/02 04:45:18;;;;;;;11.18;1.58;;;12.10;74.10;;;;;;5049681;28;20426;-75
2022/11/02 04:47:44;;;;;;;5.75;1.23;;;12.10;74.30;;;;;;5064173;28;20491;-75
2022/11/02 04:50:10;;;;;;;7.72;1.65;;;12.10;74.40;;;;;;5072685;28;20177;-74
2022/11/02 04:52:36;;;;;;;9.77;1.83;;;12.10;74.50;;;;;;5042233;28;20119;-71
2022/11/02 04:55:01;;;;;;;12.43;2.75;;;12.10;74.70;;;;;;5059224;28;20443;-71
2022/11/02 04:57:27;;;;;;;10.32;1.55;;;12.10;74.80;;;;;;5078486;28;20522;-71
2022/11/02 04:59:53;;;;;;;6.43;2.03;;;12.10;75.00;;;;;;5070075;28;20380;-70
2022/11/02 05:02:18;;;;;;;6.68;1.92;;;12.10;75.10;;;;;;5066288;28;20047;-71
2022/11/02 05:04:44;;;;;;;8.48;1.48;;;12.10;75.20;;;;;;5041863;28;20058;-71
2022/11/02 05:07:10;;;;;;;9.18;1.80;;;12.10;75.20;;;;;;5044722;28;20043;-71
2022/11/02 05:09:36;;;;;;;8.75;1.70;;;12.10;75.30;;;;;;5078631;28;20083;-70
2022/11/02 05:12:03;;;;;;;7.28;1.70;;;12.10;75.40;;;;;;5061072;28;20048;-74
2022/11/02 05:14:30;;;;;;;7.70;1.83;;;12.10;75.50;;;;;;5058030;28;20041;-71
2022/11/02 05:16:56;;;;;;;14.90;3.20;;;12.10;75.50;;;;;;5053218;28;20035;-70
2022/11/02 05:19:22;;;;;;;9.43;2.00;;;12.20;75.70;;;;;;5078244;28;20508;-71
2022/11/02 05:21:48;;;;;;;10.07;2.63;;;12.20;75.60;;;;;;5077591;28;20032;-70
2022/11/02 05:24:14;;;;;;;9.30;1.92;;;12.20;75.70;;;;;;5061312;28;20450;-70
2022/11/02 05:26:39;;;;;;;10.75;2.05;;;12.20;75.70;;;;;;5077792;28;20044;-70
2022/11/02 05:29:06;;;;;;;9.32;1.98;;;12.20;75.80;;;;;;5061041;28;20072;-71
2022/11/02 05:31:32;;;;;;;9.02;2.15;;;12.20;75.80;;;;;;5060782;28;20040;-75
2022/11/02 05:33:58;;;;;;;8.82;2.22;;;12.20;75.70;;;;;;5077493;28;20032;-70
2022/11/02 05:36:23;;;;;;;7.55;1.80;;;12.20;75.60;;;;;;5077576;28;20089;-70
2022/11/02 05:38:53;;;;;;;5.85;1.58;;;12.20;75.70;;;;;;5061688;28;20044;-70
2022/11/02 05:41:19;;;;;;;10.02;2.33;;;12.20;75.70;;;;;;5042822;28;20039;-70
2022/11/02 05:43:45;;;;;;;8.30;1.98;;;12.20;75.70;;;;;;5073469;28;20480;-71
2022/11/02 05:46:13;;;;;;;5.90;1.65;;;12.20;75.80;;;;;;5077185;28;20071;-74
2022/11/02 05:48:39;;;;;;;9.45;2.65;;;12.20;76.00;;;;;;5077596;28;20040;-74
2022/11/02 05:51:05;;;;;;;6.55;1.80;;;12.30;76.10;;;;;;5077502;28;20483;-74
2022/11/02 05:53:32;;;;;;;9.82;2.03;;;12.30;76.20;;;;;;5077349;28;20047;-74
2022/11/02 05:56:02;;;;;;;10.65;2.17;;;12.20;76.20;;;;;;5077717;28;20039;-74
2022/11/02 05:58:29;;;;;;;9.40;2.03;;;12.30;76.40;;;;;;5077516;28;20039;-75
2022/11/02 06:01:01;;;;;;;10.85;2.33;;;12.30;76.40;;;;;;5057710;28;20491;-74
2022/11/02 06:03:27;;;;;;;9.02;2.25;;;12.30;76.30;;;;;;5072458;28;20032;-75
2022/11/02 06:06:02;;;;;;;9.38;2.45;;;12.20;76.10;;;;;;5077390;28;20036;-75
2022/11/02 06:08:31;;;;;;;8.07;2.10;;;12.30;76.20;;;;;;5068120;28;20078;-70
2022/11/02 06:10:57;;;;;;;6.57;1.90;;;12.20;76.10;;;;;;5076272;28;20055;-70
2022/11/02 06:13:22;;;;;;;8.52;2.50;;;12.20;76.00;;;;;;5054727;28;20044;-70
2022/11/02 06:15:48;;;;;;;9.20;1.63;;;12.20;76.00;;;;;;5077213;28;20047;-70
2022/11/02 06:18:14;;;;;;;10.10;2.20;;;12.20;76.10;;;;;;5076926;28;20059;-70
2022/11/02 06:20:39;;;;;;;12.80;2.72;;;12.20;76.10;;;;;;5060453;28;20093;-71
2022/11/02 06:23:05;;;;;;;11.85;3.38;;;12.20;76.20;;;;;;5074759;28;20091;-71
2022/11/02 06:25:31;;;;;;;8.52;2.00;;;12.20;76.20;;;;;;5076946;28;20044;-71
2022/11/02 06:27:57;;;;;;;12.25;3.08;;;12.20;76.20;;;;;;5076678;28;20051;-72
2022/11/02 06:30:23;;;;;;;12.32;2.22;;;12.20;76.30;;;;;;5076995;28;20044;-75
2022/11/02 06:32:50;;;;;;;8.65;1.77;;;12.20;76.40;;;;;;5076811;28;20040;-75
2022/11/02 06:35:17;;;;;;;12.80;2.78;;;12.10;76.40;;;;;;5059427;28;20088;-74
2022/11/02 06:37:44;;;;;;;7.95;1.98;;;12.20;76.60;;;;;;5060054;28;20450;-75
2022/11/02 06:40:10;;;;;;;13.40;1.80;;;12.10;76.60;;;;;;5076796;28;20043;-75
2022/11/02 06:42:36;;;;;;;8.43;2.20;;;12.10;76.60;;;;;;5060452;28;20105;-75
2022/11/02 06:45:02;;;;;;;13.32;2.90;;;12.20;76.70;;;;;;5060049;28;20075;-75
2022/11/02 06:47:30;;;;;;;9.10;2.90;;;12.10;76.70;;;;;;5060021;28;20040;-74
2022/11/02 06:49:56;;;;;;;13.07;2.03;;;12.20;77.20;;;;;;5076570;28;20043;-74
2022/11/02 06:52:22;;;;;;;11.80;2.85;;;12.10;77.20;;;;;;5060823;28;20411;-74
2022/11/02 06:54:48;;;;;;;15.20;2.80;;;12.20;76.90;;;;;;5073295;28;20040;-76
2022/11/02 06:57:13;;;;;;;18.10;4.10;;;12.20;77.10;;;;;;5075241;28;20047;-70
2022/11/02 06:59:39;;;;;;;13.38;3.65;;;12.20;77.10;;;;;;5084730;28;20050;-70
2022/11/02 07:02:05;;;;;;;12.68;2.40;;;12.20;77.20;;;;;;5076093;28;20066;-71
2022/11/02 07:04:30;;;;;;;10.95;2.90;;;12.20;77.30;;;;;;5075827;28;20078;-74
2022/11/02 07:06:56;;;;;;;10.60;2.78;;;12.20;77.40;;;;;;5075908;28;20506;-75
2022/11/02 07:09:22;;;;;;;10.85;1.88;;;12.20;77.40;;;;;;5076023;28;20036;-75
2022/11/02 07:11:47;;;;;;;10.77;2.42;;;12.20;77.30;;;;;;5059360;28;20050;-75
2022/11/02 07:14:13;;;;;;;9.50;2.45;;;12.20;77.40;;;;;;5059306;28;20126;-75
2022/11/02 07:16:38;;;;;;;6.93;1.73;;;12.20;77.30;;;;;;5059719;28;20479;-75
2022/11/02 07:19:04;;;;;;;7.68;1.73;;;12.20;77.40;;;;;;5075862;28;20042;-70
2022/11/02 07:21:30;;;;;;;9.40;2.33;;;12.20;77.40;;;;;;5075951;28;20443;-70
2022/11/02 07:23:56;;;;;;;7.60;2.03;;;12.30;77.30;;;;;;5075462;28;20386;-70
2022/11/02 07:26:21;;;;;;;8.40;1.98;;;12.20;77.20;;;;;;5075641;28;20040;-70
2022/11/02 07:28:47;;;;;;;13.27;2.75;;;12.30;77.20;;;;;;5075375;28;20032;-70
2022/11/02 07:31:13;;;;;;;11.25;2.35;;;12.20;77.00;;;;;;5075702;28;20127;-70
2022/11/02 07:33:38;;;;;;;8.30;1.95;;;12.30;77.10;;;;;;5073433;28;20036;-70
2022/11/02 07:36:05;;;;;;;11.00;2.00;;;12.30;77.10;;;;;;5075390;28;20035;-70
2022/11/02 07:38:30;;;;;;;11.35;2.28;;;12.30;77.10;;;;;;5075570;28;20108;-75
2022/11/02 07:40:56;;;;;;;9.63;1.90;;;12.20;77.10;;;;;;5075406;28;20123;-75
2022/11/02 07:43:22;;;;;;;10.45;2.08;;;12.30;77.20;;;;;;5074924;28;20035;-75
2022/11/02 07:45:47;;;;;;;12.80;2.85;;;12.30;77.30;;;;;;5075622;28;20032;-75
2022/11/02 07:48:13;;;;;;;8.10;1.65;;;12.30;77.40;;;;;;5075335;28;20076;-75
2022/11/02 07:50:39;;;;;;;13.73;2.60;;;12.30;77.40;;;;;;5075382;28;20047;-75
2022/11/02 07:53:04;;;;;;;9.48;1.77;;;12.40;77.50;;;;;;5075477;28;20040;-75
2022/11/02 07:55:31;;;;;;;7.72;1.38;;;12.40;77.50;;;;;;5056442;28;20082;-75
2022/11/02 07:58:00;;;;;;;9.60;1.77;;;12.40;77.30;;;;;;5072025;28;20048;-75
2022/11/02 08:00:28;;;;;;;7.13;1.80;;;12.40;77.00;;;;;;5071840;28;20091;-75
2022/11/02 08:02:57;;;;;;;6.55;0.98;;;12.40;76.60;;;;;;5073493;28;20426;-75
2022/11/02 08:05:24;;;;;;;8.63;1.65;;;12.40;76.10;;;;;;5055656;28;20071;-75
2022/11/02 08:08:01;;;;;;;5.22;0.95;;;12.40;75.90;;;;;;5071836;28;20048;-70
2022/11/02 08:10:28;;;;;;;6.80;1.30;;;12.50;75.90;;;;;;5070576;28;20040;-71
2022/11/02 08:12:55;;;;;;;6.63;1.33;;;12.50;75.70;;;;;;5074572;28;20105;-70
2022/11/02 08:15:20;;;;;;;7.88;1.30;;;12.50;75.50;;;;;;5080219;28;20128;-70
2022/11/02 08:17:46;;;;;;;6.10;1.00;;;12.60;75.40;;;;;;5075037;28;20489;-70
2022/11/02 08:20:12;;;;;;;6.72;1.00;;;12.60;75.40;;;;;;5057998;28;20085;-71
2022/11/02 08:22:38;;;;;;;12.07;1.85;;;12.70;75.30;;;;;;5075181;28;20368;-71
2022/11/02 08:25:05;;;;;;;8.25;1.30;;;12.70;74.90;;;;;;5073476;28;20066;-70
2022/11/02 08:27:31;;;;;;;8.73;1.55;;;12.80;74.70;;;;;;5074622;28;20036;-71
2022/11/02 08:29:57;;;;;;;11.45;1.77;;;12.80;74.90;;;;;;5073673;28;20063;-71
2022/11/02 08:32:23;;;;;;;7.95;1.90;;;12.90;75.10;;;;;;5041956;28;20067;-71
2022/11/02 08:34:48;;;;;;;6.03;1.33;;;13.10;75.00;;;;;;5074385;28;20035;-71
2022/11/02 08:37:14;;;;;;;6.13;1.95;;;13.10;74.30;;;;;;5074780;28;20040;-70
2022/11/02 08:39:40;;;;;;;4.40;1.20;;;13.30;73.80;;;;;;5075006;28;20040;-71
2022/11/02 08:42:06;;;;;;;11.55;1.85;;;13.30;73.40;;;;;;5074763;28;20051;-71
2022/11/02 08:44:31;;;;;;;5.68;1.40;;;13.40;73.20;;;;;;5074549;28;20100;-71
2022/11/02 08:46:57;;;;;;;8.90;2.22;;;13.40;73.00;;;;;;5074618;28;20513;-70
2022/11/02 08:49:23;;;;;;;7.15;1.52;;;13.60;72.50;;;;;;5057826;28;20043;-70
2022/11/02 08:51:49;;;;;;;8.27;1.50;;;13.70;72.30;;;;;;5074950;28;20040;-71
2022/11/02 08:54:14;;;;;;;8.30;1.65;;;13.80;71.80;;;;;;5074288;28;20288;-70
2022/11/02 08:56:40;;;;;;;5.85;1.23;;;13.80;70.70;;;;;;5071112;28;20110;-68
2022/11/02 08:59:06;;;;;;;9.15;1.70;;;13.90;70.10;;;;;;5054978;28;20127;-71
2022/11/02 09:01:31;;;;;;;7.90;1.30;;;14.00;69.30;;;;;;5074076;28;20402;-71
2022/11/02 09:03:57;;;;;;;2.35;0.73;;;14.10;68.60;;;;;;5057355;28;20044;-68
2022/11/02 09:06:23;;;;;;;9.07;1.70;;;14.20;68.50;;;;;;5073809;28;20080;-69
2022/11/02 09:08:49;;;;;;;7.25;1.30;;;14.20;68.40;;;;;;5074884;28;20513;-70
2022/11/02 09:11:15;;;;;;;6.57;1.50;;;14.30;68.40;;;;;;5037424;28;20381;-69
2022/11/02 09:13:41;;;;;;;7.32;1.67;;;14.40;68.20;;;;;;5059646;28;20044;-75
2022/11/02 09:16:07;;;;;;;7.60;1.42;;;14.50;68.00;;;;;;5067645;28;20085;-74
2022/11/02 09:18:32;;;;;;;4.57;1.20;;;14.50;67.60;;;;;;5074726;28;20059;-75
2022/11/02 09:21:02;;;;;;;6.55;1.13;;;14.70;67.20;;;;;;5054285;28;20384;-70
2022/11/02 09:23:28;;;;;;;7.25;1.63;;;14.70;67.10;;;;;;5043652;28;20433;-69
2022/11/02 09:25:54;;;;;;;11.10;1.65;;;14.80;67.10;;;;;;5073536;28;20040;-70
2022/11/02 09:28:19;;;;;;;8.43;1.50;;;14.80;66.50;;;;;;5074313;28;20473;-70
2022/11/02 09:30:45;;;;;;;5.32;1.80;;;14.90;66.00;;;;;;5074183;28;20689;-69
2022/11/02 09:33:12;;;;;;;8.07;1.30;;;14.90;65.70;;;;;;5073877;28;20036;-70
2022/11/02 09:35:44;;;;;;;9.50;2.13;;;14.90;65.40;;;;;;5060412;28;20050;-70
2022/11/02 09:38:10;;;;;;;6.13;1.38;;;14.90;65.60;;;;;;5074549;28;20391;-70
2022/11/02 09:40:39;;;;;;;12.18;1.75;;;14.90;65.20;;;;;;5069169;28;20032;-70
2022/11/02 09:43:18;;;;;;;5.70;1.70;;;14.90;65.20;;;;;;5076136;28;20079;-70
2022/11/02 09:46:04;;;;;;;7.00;1.65;;;15.00;64.60;;;;;;5077345;28;20036;-69
2022/11/02 09:48:43;;;;;;;8.77;1.83;;;15.00;64.40;;;;;;5060996;28;20098;-70
2022/11/02 09:51:19;;;;;;;6.70;1.65;;;15.00;64.20;;;;;;5077449;28;20086;-70
2022/11/02 09:54:00;;;;;;;6.68;1.00;;;15.00;64.30;;;;;;5069647;28;20488;-69
2022/11/02 09:56:26;;;;;;;8.15;1.88;;;15.00;63.80;;;;;;5077260;28;20044;-74
2022/11/02 09:59:19;;;;;;;9.18;1.60;;;15.00;63.60;;;;;;5077231;28;20039;-75
2022/11/02 10:02:01;;;;;;;10.85;1.60;;;15.00;63.20;;;;;;5066850;28;20063;-74
2022/11/02 10:04:54;;;;;;;11.77;2.55;;;14.90;63.60;;;;;;5060436;28;20044;-75
2022/11/02 10:07:38;;;;;;;8.98;1.55;;;14.90;62.90;;;;;;5077272;28;20082;-75
2022/11/02 10:10:30;;;;;;;15.35;2.10;;;14.90;63.50;;;;;;5077404;28;20068;-75
2022/11/02 10:13:02;;;;;;;9.73;2.35;;;14.90;63.10;;;;;;5013208;28;20048;-75
2022/11/02 10:15:35;;;;;;;9.23;1.77;;;14.90;62.80;;;;;;5076977;28;20119;-75
2022/11/02 10:18:03;;;;;;;9.68;1.75;;;14.90;62.20;;;;;;5057203;28;20042;-74
2022/11/02 10:20:51;;;;;;;9.90;1.92;;;14.90;61.90;;;;;;5040499;28;20044;-75
2022/11/02 10:23:25;;;;;;;7.82;1.55;;;14.80;62.10;;;;;;5076851;28;20429;-76
2022/11/02 10:25:51;;;;;;;10.10;1.70;;;14.80;62.10;;;;;;5076528;28;20056;-75
2022/11/02 10:28:23;;;;;;;5.72;1.90;;;14.70;62.10;;;;;;5093936;28;20040;-75
2022/11/02 10:30:49;;;;;;;8.30;1.63;;;14.70;62.10;;;;;;5076957;28;20043;-75
2022/11/02 10:33:18;;;;;;;8.32;1.42;;;14.70;62.20;;;;;;5076996;28;20040;-75
2022/11/02 10:36:02;;;;;;;7.63;1.40;;;14.60;62.30;;;;;;5076748;28;21809;-75
2022/11/02 10:38:36;;;;;;;9.25;1.80;;;14.70;62.40;;;;;;5076877;28;20104;-70
2022/11/02 10:41:23;;;;;;;8.05;1.40;;;14.70;62.70;;;;;;5060210;28;20044;-75
2022/11/02 10:43:55;;;;;;;6.95;1.40;;;14.70;62.70;;;;;;5077166;28;20372;-75
2022/11/02 10:46:25;;;;;;;6.43;1.38;;;14.60;62.50;;;;;;5075492;28;20072;-76
2022/11/02 10:48:59;;;;;;;9.27;1.70;;;14.70;62.20;;;;;;5076865;28;20036;-76
2022/11/02 10:51:25;;;;;;;9.30;2.33;;;14.60;61.90;;;;;;5076583;28;20024;-76
2022/11/02 10:53:52;;;;;;;9.18;1.75;;;14.60;62.10;;;;;;5076406;28;20360;-76
2022/11/02 10:56:36;;;;;;;9.68;2.08;;;14.50;62.30;;;;;;5076623;28;20043;-76
2022/11/02 10:59:11;;;;;;;6.90;2.10;;;14.60;62.00;;;;;;5076498;28;20044;-75
2022/11/02 11:01:43;;;;;;;5.55;1.30;;;14.50;62.50;;;;;;5076356;28;20548;-76
2022/11/02 11:04:26;;;;;;;6.20;1.35;;;14.50;62.70;;;;;;5076518;28;20068;-70
2022/11/02 11:06:53;;;;;;;9.63;1.65;;;14.50;61.60;;;;;;5075728;28;20045;-70
2022/11/02 11:09:25;;;;;;;11.65;1.80;;;14.50;61.70;;;;;;5076090;28;20039;-71
2022/11/02 11:12:05;;;;;;;8.68;1.52;;;14.40;61.00;;;;;;5075934;28;20174;-70
2022/11/02 11:14:44;;;;;;;8.93;2.08;;;14.40;61.00;;;;;;5076294;28;20444;-75
2022/11/02 11:17:20;;;;;;;8.63;1.38;;;14.40;60.80;;;;;;5076118;28;20052;-75
2022/11/02 11:19:54;;;;;;;8.50;1.17;;;14.30;60.60;;;;;;5059339;28;20128;-75
2022/11/02 11:22:24;;;;;;;6.60;1.33;;;14.30;61.00;;;;;;5075824;28;20502;-75
2022/11/02 11:24:50;;;;;;;9.50;1.98;;;14.20;60.90;;;;;;5075850;28;20040;-75
2022/11/02 11:27:21;;;;;;;10.10;1.00;;;14.20;61.30;;;;;;5055360;28;20041;-70
2022/11/02 11:29:54;;;;;;;9.63;2.00;;;14.20;61.20;;;;;;5061864;28;20050;-70
2022/11/02 11:32:24;;;;;;;5.97;1.20;;;14.20;61.00;;;;;;5062509;28;20098;-76
2022/11/02 11:35:02;;;;;;;6.55;1.25;;;14.20;61.30;;;;;;5040849;28;20111;-75
2022/11/02 11:37:28;;;;;;;7.07;1.65;;;14.20;61.70;;;;;;5070707;28;20502;-75
2022/11/02 11:40:01;;;;;;;6.65;1.20;;;14.20;61.90;;;;;;5061117;28;20048;-76
2022/11/02 11:42:41;;;;;;;6.35;1.67;;;14.20;60.70;;;;;;5040372;28;20430;-76
2022/11/02 11:45:28;;;;;;;7.32;1.42;;;14.10;61.30;;;;;;5065958;28;20380;-71
2022/11/02 11:47:58;;;;;;;7.25;1.30;;;14.10;60.50;;;;;;5061307;28;20044;-70
2022/11/02 11:50:23;;;;;;;11.40;1.52;;;14.10;61.10;;;;;;5071673;28;20713;-70
2022/11/02 11:53:34;;;;;;;6.90;1.17;;;14.10;60.80;;;;;;5074693;28;20741;-70
2022/11/02 11:56:00;;;;;;;7.05;1.33;;;14.10;60.60;;;;;;5071509;28;20047;-76
2022/11/02 11:58:30;;;;;;;4.40;1.58;;;14.00;61.10;;;;;;5075432;28;20096;-76
2022/11/02 12:01:22;;;;;;;9.82;1.50;;;14.00;61.60;;;;;;5075772;28;20148;-76
2022/11/02 12:03:54;;;;;;;6.60;1.30;;;14.10;61.50;;;;;;5075049;28;20051;-75
2022/11/02 12:06:34;;;;;;;7.22;1.48;;;14.10;61.90;;;;;;5074762;28;20040;-75
2022/11/02 12:09:25;;;;;;;8.13;1.65;;;14.10;61.80;;;;;;5075520;28;20040;-75
2022/11/02 12:12:02;;;;;;;9.02;1.65;;;14.10;61.40;;;;;;5074473;28;20058;-75
2022/11/02 12:14:28;;;;;;;7.03;1.40;;;14.10;61.40;;;;;;5075204;28;20047;-75
2022/11/02 12:17:22;;;;;;;9.13;1.45;;;14.10;61.50;;;;;;5075174;28;20101;-75
2022/11/02 12:20:26;;;;;;;9.43;2.00;;;14.20;61.80;;;;;;5075524;28;20146;-75
2022/11/02 12:23:21;;;;;;;11.63;1.63;;;14.20;62.00;;;;;;5075231;28;20070;-75
2022/11/02 12:25:53;;;;;;;;;;;14.30;61.90;;;;;;5075655;28;20075;-76
2022/11/02 12:28:42;;;;;;;12.88;3.05;;;14.30;61.90;;;;;;5087104;28;20366;-75
2022/11/02 12:31:39;;;;;;;7.95;2.30;;;14.30;61.50;;;;;;5054991;28;20072;-76
2022/11/02 12:34:24;;;;;;;12.48;1.63;;;14.40;60.90;;;;;;5055947;28;20051;-70
2022/11/02 12:37:35;;;;;;;7.65;2.03;;;14.40;61.30;;;;;;5074566;28;20089;-70
2022/11/02 12:40:32;;;;;;;8.98;2.20;;;14.50;61.30;;;;;;4994448;28;20054;-70
2022/11/02 12:43:22;;;;;;;9.38;1.63;;;14.50;61.50;;;;;;4989882;28;20529;-70
2022/11/02 12:46:14;;;;;;;9.20;1.75;;;14.60;61.60;;;;;;5079552;28;20137;-70
2022/11/02 12:49:12;;;;;;;10.70;1.63;;;14.60;61.10;;;;;;5022990;28;20087;-69
2022/11/02 12:52:03;;;;;;;9.45;2.00;;;14.60;60.60;;;;;;5074631;28;20051;-69
2022/11/02 12:54:38;;;;;;;8.38;1.52;;;14.60;60.30;;;;;;5027737;28;20074;-70
2022/11/02 12:57:07;;;;;;;11.93;1.80;;;14.70;60.10;;;;;;5074122;28;20044;-70
2022/11/02 12:59:36;;;;;;;10.05;2.00;;;14.70;60.00;;;;;;5072464;28;20577;-76
2022/11/02 13:02:10;;;;;;;12.98;2.47;;;14.70;60.10;;;;;;5074939;28;20040;-75
2022/11/02 13:04:50;;;;;;;6.32;1.25;;;14.70;60.10;;;;;;5073581;28;20195;-75
2022/11/02 13:07:25;;;;;;;7.93;1.90;;;14.70;60.20;;;;;;5063859;28;20098;-70
2022/11/02 13:09:59;;;;;;;8.57;2.08;;;14.70;60.30;;;;;;5074318;28;20502;-70
2022/11/02 13:12:26;;;;;;;15.77;3.40;;;14.70;59.90;;;;;;5074623;28;20063;-76
2022/11/02 13:14:55;;;;;;;9.10;1.67;;;14.60;59.90;;;;;;5074548;28;20051;-75
2022/11/02 13:17:43;;;;;;;8.40;1.60;;;14.60;59.60;;;;;;5094854;28;20407;-75
2022/11/02 13:20:29;;;;;;;8.45;1.58;;;14.60;59.50;;;;;;5078183;28;20485;-76
2022/11/02 13:23:13;;;;;;;8.88;1.60;;;14.60;59.80;;;;;;5078209;28;20076;-70
2022/11/02 13:25:45;;;;;;;6.43;0.97;;;14.50;60.00;;;;;;5077933;28;20043;-70